Levittown, PR

2:42 PM AST on September 23, 2014 (GMT -0400)
Mercedita | Change Station
CLOSE
Current Station
Airport
Location: Ponce,
Elevation: 30 ft
Nearby Weather Stations

Elev 30 ft 18.01 °N, 66.56 °W | Updated 8 hours ago

Thunderstorm
Thunderstorm
87 °F
Feels Like 96 °F
N
12
Wind Variable Wind from ESE
Gusts 14 mph

Today
High -- | Low -- °F
--% Chance of Precip.
Yesterday
High -- | Low -- °F
Precip. -- in
6:13 AM 6:20 PM
Waning Crescent, 0% visible
Pressure 29.89 in
Visibility 8.0 miles
Clouds Scattered Clouds 2000 ft
Heat Index 96 °F
Dew Point 75 °F
Humidity 69%
Rainfall 0.00 in
Snow Depth Not available.
UV 0 out of 12
Pollen Not available.
Air Quality Not available.
Flu Activity Not available.
METAR TJPS 230950Z 05005KT 8SM SCT020 26/24 A2989

More Conditions Fewer Conditions

Pressure 29.89 in
Visibility 8.0 miles
Clouds Scattered Clouds 2000 ft
Heat Index 96 °F
Dew Point 75 °F
Humidity 69%
Rainfall 0.00 in
Snow Depth Not available.
UV 0 out of 12
Pollen Not available.
Air Quality Not available.
Flu Activity Not available.
METAR TJPS 230950Z 05005KT 8SM SCT020 26/24 A2989

More Conditions Fewer Conditions

10-Day Weather Forecast

Almanac

Astronomy

Sep. 23, 2014 Rise Set
Actual Time 6:13 AM AST 6:20 PM AST
Civil Twilight 5:52 AM AST 6:41 PM AST
Nautical Twilight 5:26 AM AST 7:07 PM AST
Astronomical Twilight 5:01 AM AST 7:32 PM AST
Moon 5:36 AM AST 5:58 PM AST
Length of Visible Light 12h 49m
Length of Day
12h 06m
Tomorrow will be 1m 2s shorter.
Waning Crescent, 0% of the Moon is Illuminated
Today
Waning Crescent
Sep 24
New
Oct 1
First Quarter
Oct 8
Full
Oct 15
Last Quarter

Community

WunderPhotos

Upload Photos

1,755,775 photos uploaded!

Nearby

Snow Depth

Station Depth Elevation
No new snow has been reported.

Earthquake Activity

City Distance Mag. Time & Date
No recent earthquake activity has been reported nearby.
Minimum magnitude displayed is 2.5.

Coastal Water Temperatures

Place Temperature
San Juan, PR 86.0 °F
Mayaguez, PR 86.0 °F
Esperanza, PR 86.0 °F

Nearby Weather Stations